Time;durP1;ratioP1;P1;durP2;ratioP2;P2;SDS_P1;SDS_P2;PMS_P1;PMS_P2;Temp;Humidity;BMP_temperature;BMP_pressure;BME280_temperature;BME280_humidity;BME280_pressure;Samples;Min_cycle;Max_cycle;Signal;HPM_P1;HPM_P2
2023/08/23 00:00:21;;;;;;;6.13;3.85;;;;;;;;;;8272423;28;20033;-57
2023/08/23 00:04:22;;;;;;;9.10;4.22;;;;;;;;;;8272417;28;20029;-57
2023/08/23 00:08:22;;;;;;;5.53;4.23;;;;;;;;;;8274395;28;20060;-57
2023/08/23 00:12:22;;;;;;;7.43;4.53;;;;;;;;;;8272946;28;20477;-57
2023/08/23 00:16:23;;;;;;;9.55;3.90;;;;;;;;;;8272293;28;20091;-57
2023/08/23 00:20:23;;;;;;;6.73;3.90;;;;;;;;;;8274984;28;20037;-57
2023/08/23 00:24:23;;;;;;;5.55;4.40;;;;;;;;;;8272623;28;21032;-57
2023/08/23 00:28:23;;;;;;;7.57;4.10;;;;;;;;;;8273157;28;20030;-57
2023/08/23 00:32:23;;;;;;;6.82;3.58;;;;;;;;;;8271349;28;20041;-57
2023/08/23 00:36:24;;;;;;;6.95;4.10;;;;;;;;;;8272825;28;20143;-57
2023/08/23 00:40:24;;;;;;;7.80;4.07;;;;;;;;;;8271852;28;20112;-57
2023/08/23 00:44:24;;;;;;;5.28;3.72;;;;;;;;;;8272193;28;20029;-57
2023/08/23 00:48:24;;;;;;;6.15;3.70;;;;;;;;;;8269779;28;20038;-57
2023/08/23 00:52:26;;;;;;;9.20;4.30;;;;;;;;;;8271810;28;20412;-57
2023/08/23 00:56:27;;;;;;;7.53;4.35;;;;;;;;;;8274139;28;20467;-57
2023/08/23 01:00:27;;;;;;;6.40;3.70;;;;;;;;;;8271381;28;20057;-57
2023/08/23 01:04:28;;;;;;;6.95;3.92;;;;;;;;;;8266118;28;20268;-56
2023/08/23 01:08:37;;;;;;;4.10;3.70;;;;;;;;;;8266273;28;20075;-57
2023/08/23 01:12:42;;;;;;;5.38;3.50;;;;;;;;;;8268917;28;20037;-57
2023/08/23 01:16:46;;;;;;;6.20;4.00;;;;;;;;;;8268710;28;20038;-57
2023/08/23 01:20:48;;;;;;;6.97;4.05;;;;;;;;;;8271017;28;20041;-57
2023/08/23 01:24:49;;;;;;;6.03;3.63;;;;;;;;;;8272385;28;20954;-57
2023/08/23 01:28:51;;;;;;;6.72;4.10;;;;;;;;;;8271507;28;20025;-57
2023/08/23 01:32:51;;;;;;;5.85;3.75;;;;;;;;;;8268842;28;20766;-58
2023/08/23 01:36:52;;;;;;;4.47;3.70;;;;;;;;;;8267169;28;20033;-58
2023/08/23 01:40:53;;;;;;;7.05;3.70;;;;;;;;;;8269860;28;20121;-57
2023/08/23 01:44:53;;;;;;;12.68;3.75;;;;;;;;;;8270387;28;20076;-57
2023/08/23 01:48:53;;;;;;;4.32;3.92;;;;;;;;;;8269276;28;20070;-57
2023/08/23 01:52:53;;;;;;;8.25;3.72;;;;;;;;;;8270237;28;20035;-57
2023/08/23 01:56:53;;;;;;;7.15;4.10;;;;;;;;;;8269776;28;20748;-56
2023/08/23 02:00:53;;;;;;;6.10;3.58;;;;;;;;;;8271431;28;20188;-56
2023/08/23 02:04:54;;;;;;;9.65;3.90;;;;;;;;;;8269522;28;20021;-57
2023/08/23 02:08:54;;;;;;;7.80;3.50;;;;;;;;;;8267673;28;20498;-57
2023/08/23 02:12:54;;;;;;;8.15;3.40;;;;;;;;;;8268472;28;20345;-57
2023/08/23 02:16:54;;;;;;;5.95;3.53;;;;;;;;;;8267829;28;20121;-57
2023/08/23 02:20:58;;;;;;;7.07;3.30;;;;;;;;;;8268646;28;20145;-57
2023/08/23 02:24:58;;;;;;;5.65;3.40;;;;;;;;;;8272889;28;20030;-57
2023/08/23 02:28:58;;;;;;;5.18;3.70;;;;;;;;;;8271156;28;20025;-57
2023/08/23 02:32:58;;;;;;;5.30;3.83;;;;;;;;;;8269848;28;20060;-57
2023/08/23 02:36:59;;;;;;;5.90;3.97;;;;;;;;;;8269631;28;20063;-57
2023/08/23 02:40:59;;;;;;;5.78;3.55;;;;;;;;;;8275204;28;20025;-57
2023/08/23 02:44:59;;;;;;;5.57;3.67;;;;;;;;;;8278358;28;20382;-57
2023/08/23 02:48:59;;;;;;;6.15;3.92;;;;;;;;;;8275682;28;20038;-57
2023/08/23 02:52:59;;;;;;;6.32;3.97;;;;;;;;;;8273925;28;20033;-57
2023/08/23 02:56:59;;;;;;;6.82;3.53;;;;;;;;;;8274701;28;20141;-57
2023/08/23 03:01:00;;;;;;;6.65;3.50;;;;;;;;;;8275473;28;20044;-57
2023/08/23 03:05:01;;;;;;;6.25;3.70;;;;;;;;;;8272988;28;20144;-57
2023/08/23 03:09:01;;;;;;;6.68;3.63;;;;;;;;;;8272508;28;20040;-57
2023/08/23 03:13:01;;;;;;;5.95;3.80;;;;;;;;;;8274943;28;20033;-57
2023/08/23 03:17:01;;;;;;;4.20;3.70;;;;;;;;;;8272319;28;20080;-57
2023/08/23 03:21:02;;;;;;;7.28;3.63;;;;;;;;;;8276283;28;20044;-57
2023/08/23 03:25:02;;;;;;;7.47;4.13;;;;;;;;;;8271633;28;20037;-57
2023/08/23 03:29:02;;;;;;;6.95;3.92;;;;;;;;;;8272331;28;20040;-57
2023/08/23 03:33:03;;;;;;;6.72;3.78;;;;;;;;;;8274300;28;20088;-57
2023/08/23 03:37:03;;;;;;;9.88;4.10;;;;;;;;;;8275956;28;20029;-57
2023/08/23 03:41:03;;;;;;;5.57;4.13;;;;;;;;;;8274401;28;20026;-57
2023/08/23 03:45:04;;;;;;;8.47;3.80;;;;;;;;;;8273313;28;20371;-59
2023/08/23 03:49:04;;;;;;;5.95;3.35;;;;;;;;;;8274742;28;20018;-57
2023/08/23 03:53:04;;;;;;;10.52;3.13;;;;;;;;;;8271253;28;20032;-57
2023/08/23 03:57:04;;;;;;;5.47;2.88;;;;;;;;;;8274472;28;20036;-57
2023/08/23 04:01:04;;;;;;;10.10;3.17;;;;;;;;;;8271433;28;20574;-57
2023/08/23 04:05:11;;;;;;;3.53;3.03;;;;;;;;;;8272549;28;20025;-57
2023/08/23 04:09:11;;;;;;;5.88;3.30;;;;;;;;;;8272966;28;20064;-57
2023/08/23 04:13:11;;;;;;;6.10;3.10;;;;;;;;;;8273989;28;20128;-57
2023/08/23 04:17:12;;;;;;;5.32;3.20;;;;;;;;;;8272266;28;20045;-57
2023/08/23 04:21:12;;;;;;;5.03;3.30;;;;;;;;;;8275942;28;20029;-57
2023/08/23 04:25:12;;;;;;;6.63;3.08;;;;;;;;;;8273309;28;20018;-57
2023/08/23 04:29:12;;;;;;;8.95;3.50;;;;;;;;;;8274064;28;20022;-57
2023/08/23 04:33:12;;;;;;;7.45;3.30;;;;;;;;;;8270146;28;20038;-57
2023/08/23 04:37:13;;;;;;;7.05;3.30;;;;;;;;;;8271021;28;20893;-57
2023/08/23 04:41:13;;;;;;;3.67;2.90;;;;;;;;;;8274513;28;20408;-57
2023/08/23 04:45:13;;;;;;;5.90;3.00;;;;;;;;;;8271629;28;20029;-57
2023/08/23 04:49:13;;;;;;;6.17;3.13;;;;;;;;;;8271899;28;20030;-57
2023/08/23 04:53:13;;;;;;;7.88;3.35;;;;;;;;;;8272810;28;20100;-57
2023/08/23 04:57:14;;;;;;;7.40;3.10;;;;;;;;;;8274582;28;20107;-58
2023/08/23 05:01:15;;;;;;;8.57;3.50;;;;;;;;;;8272410;28;20532;-56
2023/08/23 05:05:15;;;;;;;4.97;3.47;;;;;;;;;;8266777;28;20036;-57
2023/08/23 05:09:15;;;;;;;7.68;3.67;;;;;;;;;;8262624;28;20136;-57
2023/08/23 05:13:15;;;;;;;7.95;3.53;;;;;;;;;;8264450;28;20047;-57
2023/08/23 05:17:16;;;;;;;11.57;3.60;;;;;;;;;;8263584;28;20068;-57
2023/08/23 05:21:16;;;;;;;6.00;3.17;;;;;;;;;;8265195;28;20441;-57
2023/08/23 05:25:16;;;;;;;9.95;3.40;;;;;;;;;;8261355;28;20442;-57
2023/08/23 05:29:16;;;;;;;5.53;3.40;;;;;;;;;;8267164;28;20060;-57
2023/08/23 05:33:17;;;;;;;7.63;3.45;;;;;;;;;;8261280;28;20042;-57
2023/08/23 05:37:19;;;;;;;5.03;3.60;;;;;;;;;;8261606;28;20123;-57
2023/08/23 05:41:19;;;;;;;7.93;3.25;;;;;;;;;;8262058;28;20028;-57
2023/08/23 05:45:20;;;;;;;7.60;3.25;;;;;;;;;;8260996;28;20013;-57
2023/08/23 05:49:21;;;;;;;8.45;3.30;;;;;;;;;;8262305;28;20481;-57
2023/08/23 05:53:21;;;;;;;7.75;3.25;;;;;;;;;;8260615;28;20057;-57
2023/08/23 05:57:21;;;;;;;6.38;3.38;;;;;;;;;;8262754;28;20040;-59
2023/08/23 06:01:21;;;;;;;5.45;3.05;;;;;;;;;;8268697;28;20053;-58
2023/08/23 06:05:21;;;;;;;3.03;2.63;;;;;;;;;;8262132;28;20105;-58
2023/08/23 06:09:21;;;;;;;11.02;2.72;;;;;;;;;;8261540;28;20113;-58
2023/08/23 06:13:22;;;;;;;4.32;3.20;;;;;;;;;;8263772;28;20026;-58
2023/08/23 06:17:25;;;;;;;7.00;3.05;;;;;;;;;;8265773;28;20144;-58
2023/08/23 06:21:25;;;;;;;4.15;3.00;;;;;;;;;;8268963;28;20063;-58
2023/08/23 06:25:25;;;;;;;5.32;2.60;;;;;;;;;;8268445;28;20211;-58
2023/08/23 06:29:25;;;;;;;7.78;2.80;;;;;;;;;;8269696;28;20029;-58
2023/08/23 06:33:26;;;;;;;5.60;2.70;;;;;;;;;;8268581;28;20048;-58
2023/08/23 06:37:26;;;;;;;6.35;2.60;;;;;;;;;;8267401;28;20029;-58
2023/08/23 06:41:26;;;;;;;5.50;2.40;;;;;;;;;;8266849;28;20021;-58
2023/08/23 06:45:26;;;;;;;6.10;2.67;;;;;;;;;;8268814;28;20045;-58
2023/08/23 06:49:27;;;;;;;4.57;2.15;;;;;;;;;;8270094;28;20109;-58
2023/08/23 06:53:27;;;;;;;4.50;2.00;;;;;;;;;;8266929;28;20036;-58
2023/08/23 06:57:30;;;;;;;7.57;2.28;;;;;;;;;;8267621;28;20024;-58
2023/08/23 07:01:30;;;;;;;3.80;2.00;;;;;;;;;;8261744;28;20434;-58
2023/08/23 07:05:32;;;;;;;5.07;2.22;;;;;;;;;;8265283;28;20487;-58
2023/08/23 07:09:33;;;;;;;5.57;2.20;;;;;;;;;;8269233;28;20506;-58
2023/08/23 07:13:34;;;;;;;6.88;2.17;;;;;;;;;;8265702;28;20021;-59
2023/08/23 07:17:36;;;;;;;4.50;2.00;;;;;;;;;;8266495;28;20064;-59
2023/08/23 07:21:36;;;;;;;3.38;1.85;;;;;;;;;;8265606;28;20029;-58
2023/08/23 07:25:36;;;;;;;6.07;2.33;;;;;;;;;;8265377;28;20415;-59
2023/08/23 07:29:37;;;;;;;4.07;2.05;;;;;;;;;;8265834;28;20458;-59
2023/08/23 07:33:37;;;;;;;3.28;2.00;;;;;;;;;;8265287;28;20038;-59
2023/08/23 07:37:38;;;;;;;5.20;1.87;;;;;;;;;;8264861;28;20033;-59
2023/08/23 07:41:38;;;;;;;5.15;2.10;;;;;;;;;;8265386;28;20430;-59
2023/08/23 07:45:38;;;;;;;2.88;1.92;;;;;;;;;;8265133;28;20043;-59
2023/08/23 07:49:38;;;;;;;5.68;2.25;;;;;;;;;;8269124;28;20132;-58
2023/08/23 07:53:41;;;;;;;6.57;2.15;;;;;;;;;;8265560;28;20466;-58
2023/08/23 07:57:42;;;;;;;5.38;2.30;;;;;;;;;;8265345;28;20430;-59
2023/08/23 08:01:42;;;;;;;3.55;2.10;;;;;;;;;;8269158;28;20502;-60
2023/08/23 08:05:42;;;;;;;4.25;2.30;;;;;;;;;;8266445;28;20509;-59
2023/08/23 08:09:42;;;;;;;4.07;1.97;;;;;;;;;;8264795;28;20022;-59
2023/08/23 08:13:43;;;;;;;4.93;2.10;;;;;;;;;;8267118;28;20076;-59
2023/08/23 08:17:43;;;;;;;5.65;2.20;;;;;;;;;;8266414;28;20041;-59
2023/08/23 08:21:43;;;;;;;2.53;1.70;;;;;;;;;;8264080;28;20295;-60
2023/08/23 08:25:43;;;;;;;5.38;2.08;;;;;;;;;;8278486;28;20461;-59
2023/08/23 08:29:43;;;;;;;4.53;2.00;;;;;;;;;;8267318;28;20037;-59
2023/08/23 08:33:44;;;;;;;3.08;1.95;;;;;;;;;;8265628;28;20046;-59
2023/08/23 08:37:44;;;;;;;4.80;1.90;;;;;;;;;;8263043;28;20602;-60
2023/08/23 08:41:45;;;;;;;6.32;1.90;;;;;;;;;;8264627;28;20570;-59
2023/08/23 08:45:45;;;;;;;4.30;1.93;;;;;;;;;;8264600;28;20104;-59
2023/08/23 08:49:45;;;;;;;3.93;1.90;;;;;;;;;;8265543;28;20029;-59
2023/08/23 08:53:47;;;;;;;5.82;1.80;;;;;;;;;;8261615;28;20033;-59
2023/08/23 08:57:49;;;;;;;2.50;1.80;;;;;;;;;;8262723;28;20029;-59
2023/08/23 09:01:49;;;;;;;;;;;;;;;;;;8263532;28;20630;-59
2023/08/23 09:05:49;;;;;;;9.27;2.00;;;;;;;;;;8263379;28;19917;-59
2023/08/23 09:09:50;;;;;;;5.10;1.67;;;;;;;;;;8264807;28;20116;-59
2023/08/23 09:13:50;;;;;;;3.30;1.60;;;;;;;;;;8259194;28;20029;-59
2023/08/23 09:17:54;;;;;;;3.55;1.83;;;;;;;;;;8260612;28;20592;-60
2023/08/23 09:21:54;;;;;;;2.95;1.60;;;;;;;;;;8263493;28;20412;-59
2023/08/23 09:25:54;;;;;;;3.60;1.60;;;;;;;;;;8261785;28;20499;-59
2023/08/23 09:29:55;;;;;;;3.40;1.45;;;;;;;;;;8265058;28;20038;-60
2023/08/23 09:33:56;;;;;;;4.33;1.80;;;;;;;;;;8259883;28;20422;-60
2023/08/23 09:37:56;;;;;;;4.37;1.57;;;;;;;;;;8260695;28;20191;-59
2023/08/23 09:42:03;;;;;;;3.40;1.70;;;;;;;;;;8261282;28;20029;-59
2023/08/23 09:46:03;;;;;;;7.60;1.92;;;;;;;;;;8262096;28;20559;-59
2023/08/23 09:50:04;;;;;;;5.13;1.80;;;;;;;;;;8265553;28;20068;-59
2023/08/23 09:54:11;;;;;;;4.60;1.57;;;;;;;;;;8265886;28;20033;-59
2023/08/23 09:58:11;;;;;;;4.93;1.75;;;;;;;;;;8261627;28;20308;-59
2023/08/23 10:02:14;;;;;;;4.30;1.92;;;;;;;;;;8262834;28;20061;-59
2023/08/23 10:06:15;;;;;;;2.72;1.63;;;;;;;;;;8263272;28;20434;-60
2023/08/23 10:10:15;;;;;;;4.03;2.10;;;;;;;;;;8262317;28;20438;-60
2023/08/23 10:14:15;;;;;;;4.85;1.95;;;;;;;;;;8260546;28;20025;-60
2023/08/23 10:18:16;;;;;;;4.23;1.67;;;;;;;;;;8262575;28;20517;-60
2023/08/23 10:22:17;;;;;;;4.63;1.90;;;;;;;;;;8265584;28;20109;-60
2023/08/23 10:26:19;;;;;;;4.67;1.70;;;;;;;;;;8261783;28;20041;-60
2023/08/23 10:30:26;;;;;;;2.45;1.58;;;;;;;;;;8259911;28;20411;-61
2023/08/23 10:34:26;;;;;;;4.22;1.77;;;;;;;;;;8261423;28;20040;-60
2023/08/23 10:38:27;;;;;;;3.95;1.55;;;;;;;;;;8262976;28;20022;-59
2023/08/23 10:42:27;;;;;;;4.47;1.52;;;;;;;;;;8261390;28;20036;-60
2023/08/23 10:46:30;;;;;;;8.05;1.95;;;;;;;;;;8262490;28;20026;-60
2023/08/23 10:50:30;;;;;;;4.53;1.63;;;;;;;;;;8263042;28;20029;-60
2023/08/23 10:54:30;;;;;;;2.60;1.50;;;;;;;;;;8259278;28;20496;-60
2023/08/23 10:58:31;;;;;;;8.13;1.93;;;;;;;;;;8259875;28;20026;-60
2023/08/23 11:02:32;;;;;;;5.15;1.77;;;;;;;;;;8267527;28;20148;-60
2023/08/23 11:06:32;;;;;;;1.53;1.37;;;;;;;;;;8265884;28;20545;-60
2023/08/23 11:10:32;;;;;;;6.07;1.90;;;;;;;;;;8265386;28;20088;-60
2023/08/23 11:14:32;;;;;;;3.13;1.60;;;;;;;;;;8267299;28;20474;-60
2023/08/23 11:18:34;;;;;;;1.88;1.20;;;;;;;;;;8267651;28;20553;-60
2023/08/23 11:22:34;;;;;;;4.93;1.38;;;;;;;;;;8266944;28;20540;-60
2023/08/23 11:26:34;;;;;;;2.75;1.30;;;;;;;;;;8264052;28;20030;-60
2023/08/23 11:30:34;;;;;;;3.47;1.07;;;;;;;;;;8265397;28;20029;-60
2023/08/23 11:34:35;;;;;;;5.50;1.50;;;;;;;;;;8266608;28;20538;-60
2023/08/23 11:38:35;;;;;;;4.13;1.23;;;;;;;;;;8265689;28;20014;-60
2023/08/23 11:42:36;;;;;;;1.92;1.10;;;;;;;;;;8271436;28;20070;-60
2023/08/23 11:46:39;;;;;;;4.63;0.83;;;;;;;;;;8263782;28;20160;-60
2023/08/23 11:50:39;;;;;;;1.08;0.98;;;;;;;;;;8263977;28;20040;-62
2023/08/23 11:54:40;;;;;;;1.10;1.00;;;;;;;;;;8264325;28;20033;-60
2023/08/23 11:58:41;;;;;;;2.58;1.10;;;;;;;;;;8269359;28;20072;-60
2023/08/23 12:02:41;;;;;;;1.35;0.90;;;;;;;;;;8265453;28;20057;-60
2023/08/23 12:06:41;;;;;;;3.85;1.10;;;;;;;;;;8249846;28;20013;-60
2023/08/23 12:10:41;;;;;;;1.53;1.00;;;;;;;;;;8260147;28;20061;-59
2023/08/23 12:14:42;;;;;;;3.37;1.10;;;;;;;;;;8261218;28;20547;-59
2023/08/23 12:18:42;;;;;;;1.80;1.10;;;;;;;;;;8259135;28;20172;-60
2023/08/23 12:22:46;;;;;;;1.53;1.10;;;;;;;;;;8259761;28;20030;-60
2023/08/23 12:26:46;;;;;;;1.83;1.05;;;;;;;;;;8259641;28;20022;-59
2023/08/23 12:30:46;;;;;;;1.38;1.00;;;;;;;;;;8260017;28;20034;-60
2023/08/23 12:34:47;;;;;;;2.85;1.20;;;;;;;;;;8257805;28;20244;-59
2023/08/23 12:38:47;;;;;;;1.17;1.07;;;;;;;;;;8261668;28;20553;-59
2023/08/23 12:42:47;;;;;;;1.57;1.10;;;;;;;;;;8261507;28;20483;-59
2023/08/23 12:46:47;;;;;;;4.85;1.10;;;;;;;;;;8257329;28;20738;-59
2023/08/23 12:50:48;;;;;;;2.60;1.05;;;;;;;;;;8259943;28;20041;-59
2023/08/23 12:54:48;;;;;;;2.30;1.03;;;;;;;;;;8259600;28;20034;-59
2023/08/23 12:58:48;;;;;;;1.07;0.90;;;;;;;;;;8259825;28;20274;-58
2023/08/23 13:02:49;;;;;;;1.97;0.90;;;;;;;;;;8253116;28;20045;-59
2023/08/23 13:06:49;;;;;;;1.53;1.00;;;;;;;;;;8253910;28;20222;-59
2023/08/23 13:10:49;;;;;;;2.03;1.10;;;;;;;;;;8256112;28;20032;-59
2023/08/23 13:14:49;;;;;;;1.75;1.00;;;;;;;;;;8254442;28;20127;-59
2023/08/23 13:18:49;;;;;;;1.58;1.10;;;;;;;;;;8253331;28;20526;-60
2023/08/23 13:22:50;;;;;;;1.67;1.10;;;;;;;;;;8267247;28;20046;-60
2023/08/23 13:26:50;;;;;;;1.80;1.17;;;;;;;;;;8262778;28;20026;-60
2023/08/23 13:30:51;;;;;;;4.43;1.20;;;;;;;;;;8263799;28;20030;-60
2023/08/23 13:34:51;;;;;;;1.53;1.20;;;;;;;;;;8264887;28;20028;-57
2023/08/23 13:38:51;;;;;;;1.75;1.10;;;;;;;;;;8266093;28;20018;-60
2023/08/23 13:42:53;;;;;;;1.98;1.20;;;;;;;;;;8258765;28;20040;-59
2023/08/23 13:46:53;;;;;;;1.17;1.08;;;;;;;;;;8257336;28;20648;-59
2023/08/23 13:50:53;;;;;;;2.42;1.05;;;;;;;;;;8253907;28;20614;-58
2023/08/23 13:54:54;;;;;;;1.67;1.30;;;;;;;;;;8258433;28;20437;-59
2023/08/23 13:58:54;;;;;;;1.80;1.10;;;;;;;;;;8258511;28;20132;-59
2023/08/23 14:02:54;;;;;;;2.00;1.00;;;;;;;;;;8256389;28;20046;-59
2023/08/23 14:06:55;;;;;;;3.00;1.02;;;;;;;;;;8256824;28;20041;-59
2023/08/23 14:10:55;;;;;;;3.03;1.40;;;;;;;;;;8257280;28;20029;-58
2023/08/23 14:14:56;;;;;;;3.10;1.20;;;;;;;;;;8253317;28;20376;-58
2023/08/23 14:18:56;;;;;;;2.80;1.30;;;;;;;;;;8257088;28;20472;-58
2023/08/23 14:22:56;;;;;;;1.20;1.10;;;;;;;;;;8255480;28;20538;-58
2023/08/23 14:26:56;;;;;;;1.27;1.10;;;;;;;;;;8250326;28;20021;-59
2023/08/23 14:30:57;;;;;;;2.88;1.20;;;;;;;;;;8255759;28;20048;-58
2023/08/23 14:34:57;;;;;;;3.75;1.30;;;;;;;;;;8253989;28;20033;-58
2023/08/23 14:38:58;;;;;;;1.30;1.20;;;;;;;;;;8262700;28;20557;-58
2023/08/23 14:42:58;;;;;;;1.17;1.17;;;;;;;;;;8261892;28;20577;-58
2023/08/23 14:46:58;;;;;;;1.10;1.10;;;;;;;;;;8263489;28;20048;-59
2023/08/23 14:50:59;;;;;;;1.87;1.13;;;;;;;;;;8265959;28;20599;-58
2023/08/23 14:55:03;;;;;;;1.73;1.30;;;;;;;;;;8262817;28;20029;-58
2023/08/23 14:59:03;;;;;;;2.70;1.30;;;;;;;;;;8264359;28;20818;-58
2023/08/23 15:03:04;;;;;;;2.50;1.25;;;;;;;;;;8261372;28;20316;-58
2023/08/23 15:07:04;;;;;;;1.97;1.50;;;;;;;;;;8259255;28;20034;-59
2023/08/23 15:11:04;;;;;;;2.10;1.60;;;;;;;;;;8262257;28;20483;-58
2023/08/23 15:15:05;;;;;;;3.67;1.30;;;;;;;;;;8260591;28;20040;-62
2023/08/23 15:19:05;;;;;;;6.03;1.80;;;;;;;;;;8260716;28;20164;-58
2023/08/23 15:23:05;;;;;;;3.10;1.55;;;;;;;;;;8263502;28;20026;-58
2023/08/23 15:27:06;;;;;;;2.58;1.90;;;;;;;;;;8263398;28;20112;-58
2023/08/23 15:31:06;;;;;;;1.83;1.50;;;;;;;;;;8261671;28;20087;-58
2023/08/23 15:35:06;;;;;;;2.35;1.60;;;;;;;;;;8263652;28;20056;-58
2023/08/23 15:39:06;;;;;;;3.53;2.10;;;;;;;;;;8267330;28;20496;-58
2023/08/23 15:43:07;;;;;;;2.47;1.90;;;;;;;;;;8266869;28;20022;-58
2023/08/23 15:47:07;;;;;;;2.00;1.80;;;;;;;;;;8266209;28;20284;-58
2023/08/23 15:51:08;;;;;;;2.00;1.80;;;;;;;;;;8262939;28;21369;-58
2023/08/23 15:55:09;;;;;;;4.03;2.13;;;;;;;;;;8273320;28;20034;-58
2023/08/23 15:59:11;;;;;;;5.38;2.03;;;;;;;;;;8274931;28;20033;-57
2023/08/23 16:03:12;;;;;;;2.88;2.08;;;;;;;;;;8271683;28;20058;-58
2023/08/23 16:07:12;;;;;;;2.47;1.50;;;;;;;;;;8266658;28;20099;-58
2023/08/23 16:11:12;;;;;;;3.13;1.93;;;;;;;;;;8267828;28;20029;-56
2023/08/23 16:15:12;;;;;;;3.10;1.70;;;;;;;;;;8266062;28;20512;-57
2023/08/23 16:19:13;;;;;;;2.15;1.70;;;;;;;;;;8268939;28;20036;-57
2023/08/23 16:23:13;;;;;;;1.80;1.60;;;;;;;;;;8268558;28;20026;-56
2023/08/23 16:27:14;;;;;;;4.03;1.80;;;;;;;;;;8257908;28;20034;-56
2023/08/23 16:31:14;;;;;;;8.98;2.13;;;;;;;;;;8259983;28;20041;-57
2023/08/23 16:35:14;;;;;;;2.65;1.65;;;;;;;;;;8257093;28;20511;-57
2023/08/23 16:39:15;;;;;;;1.75;1.50;;;;;;;;;;8260626;28;20029;-57
2023/08/23 16:43:16;;;;;;;2.40;1.63;;;;;;;;;;8259632;28;20021;-57
2023/08/23 16:47:16;;;;;;;3.55;1.65;;;;;;;;;;8258196;28;20605;-57
2023/08/23 16:51:16;;;;;;;1.55;1.45;;;;;;;;;;8263154;28;20557;-57
2023/08/23 16:55:17;;;;;;;3.17;1.80;;;;;;;;;;8262364;28;20022;-57
2023/08/23 16:59:17;;;;;;;2.45;1.70;;;;;;;;;;8246032;28;20033;-57
2023/08/23 17:03:17;;;;;;;1.73;1.50;;;;;;;;;;8263229;28;20453;-56
2023/08/23 17:07:17;;;;;;;2.13;1.70;;;;;;;;;;8264047;28;20594;-57
2023/08/23 17:11:18;;;;;;;2.10;1.73;;;;;;;;;;8263667;28;20025;-57
2023/08/23 17:15:18;;;;;;;2.45;1.90;;;;;;;;;;8261895;28;20034;-56
2023/08/23 17:19:18;;;;;;;2.00;1.70;;;;;;;;;;8262186;28;20029;-57
2023/08/23 17:23:18;;;;;;;1.70;1.60;;;;;;;;;;8262319;28;20443;-56
2023/08/23 17:27:20;;;;;;;2.58;2.08;;;;;;;;;;8263240;28;20605;-57
2023/08/23 17:31:20;;;;;;;2.13;1.77;;;;;;;;;;8263671;28;20066;-57
2023/08/23 17:35:20;;;;;;;1.97;1.57;;;;;;;;;;8263246;28;20898;-56
2023/08/23 17:39:21;;;;;;;2.83;1.63;;;;;;;;;;8262946;28;20332;-57
2023/08/23 17:43:21;;;;;;;1.63;1.52;;;;;;;;;;8262754;28;20498;-57
2023/08/23 17:47:23;;;;;;;1.85;1.70;;;;;;;;;;8262855;28;20419;-57
2023/08/23 17:51:23;;;;;;;1.60;1.50;;;;;;;;;;8258798;28;20033;-56
2023/08/23 17:55:24;;;;;;;2.22;1.73;;;;;;;;;;8257240;28;20349;-56
2023/08/23 17:59:28;;;;;;;1.73;1.45;;;;;;;;;;8259369;28;20026;-55
2023/08/23 18:03:29;;;;;;;3.45;1.75;;;;;;;;;;8259938;28;20378;-56
2023/08/23 18:07:29;;;;;;;3.50;2.00;;;;;;;;;;8261770;28;20622;-56
2023/08/23 18:11:29;;;;;;;5.18;1.60;;;;;;;;;;8261919;28;20025;-56
2023/08/23 18:15:29;;;;;;;4.10;2.40;;;;;;;;;;8267483;28;20104;-57
2023/08/23 18:19:30;;;;;;;2.88;1.70;;;;;;;;;;8261542;28;20040;-57
2023/08/23 18:23:30;;;;;;;4.97;1.73;;;;;;;;;;8267176;28;20445;-56
2023/08/23 18:27:30;;;;;;;2.83;1.77;;;;;;;;;;8256875;28;20390;-55
2023/08/23 18:31:30;;;;;;;4.45;1.73;;;;;;;;;;8262032;28;20606;-56
2023/08/23 18:35:31;;;;;;;8.70;1.80;;;;;;;;;;8256840;28;20549;-54
2023/08/23 18:39:31;;;;;;;8.80;2.13;;;;;;;;;;8264253;28;20139;-56
2023/08/23 18:43:31;;;;;;;5.30;2.00;;;;;;;;;;8265090;28;20573;-56
2023/08/23 18:47:32;;;;;;;10.53;1.77;;;;;;;;;;8259167;28;20042;-56
2023/08/23 18:51:32;;;;;;;10.43;2.10;;;;;;;;;;8268766;28;20029;-56
2023/08/23 18:55:32;;;;;;;6.27;1.90;;;;;;;;;;8257662;28;20443;-56
2023/08/23 18:59:34;;;;;;;12.10;2.10;;;;;;;;;;8256203;28;20037;-56
2023/08/23 19:03:34;;;;;;;13.13;2.38;;;;;;;;;;8256939;28;20100;-56
2023/08/23 19:07:34;;;;;;;6.33;1.80;;;;;;;;;;8259082;28;20030;-56
2023/08/23 19:11:35;;;;;;;6.05;1.92;;;;;;;;;;8261581;28;20427;-56
2023/08/23 19:15:38;;;;;;;14.15;2.00;;;;;;;;;;8259100;28;20140;-56
2023/08/23 19:19:38;;;;;;;8.45;1.92;;;;;;;;;;8265599;28;20018;-55
2023/08/23 19:23:38;;;;;;;7.07;2.10;;;;;;;;;;8269043;28;20048;-56
2023/08/23 19:27:39;;;;;;;9.82;1.60;;;;;;;;;;8262495;28;20018;-56
2023/08/23 19:31:53;;;;;;;7.68;2.17;;;;;;;;;;8259990;28;20034;-55
2023/08/23 19:35:54;;;;;;;5.15;1.83;;;;;;;;;;8255827;28;20112;-56
2023/08/23 19:39:54;;;;;;;7.40;1.70;;;;;;;;;;8259230;28;20026;-56
2023/08/23 19:43:54;;;;;;;5.45;1.58;;;;;;;;;;8259746;28;20435;-56
2023/08/23 19:47:56;;;;;;;1.95;1.60;;;;;;;;;;8259996;28;20044;-56
2023/08/23 19:51:56;;;;;;;1.80;1.35;;;;;;;;;;8257781;28;20065;-56
2023/08/23 19:56:04;;;;;;;5.63;1.80;;;;;;;;;;8259793;28;20029;-56
2023/08/23 20:00:04;;;;;;;4.30;1.60;;;;;;;;;;8259248;28;20025;-56
2023/08/23 20:04:04;;;;;;;3.13;1.67;;;;;;;;;;8253806;28;21000;-56
2023/08/23 20:08:05;;;;;;;4.60;1.50;;;;;;;;;;8256787;28;20429;-56
2023/08/23 20:12:06;;;;;;;3.38;1.70;;;;;;;;;;8258387;28;20568;-56
2023/08/23 20:16:06;;;;;;;2.80;1.70;;;;;;;;;;8253255;28;20433;-56
2023/08/23 20:20:07;;;;;;;2.75;1.60;;;;;;;;;;8251546;28;20042;-56
2023/08/23 20:24:07;;;;;;;2.20;1.70;;;;;;;;;;8250023;28;20109;-56
2023/08/23 20:28:07;;;;;;;2.60;1.40;;;;;;;;;;8255341;28;20033;-56
2023/08/23 20:32:07;;;;;;;1.95;1.33;;;;;;;;;;8254953;28;20033;-56
2023/08/23 20:36:08;;;;;;;2.47;1.38;;;;;;;;;;8255487;28;20057;-56
2023/08/23 20:40:09;;;;;;;2.92;1.40;;;;;;;;;;8258281;28;20029;-56
2023/08/23 20:44:09;;;;;;;2.03;1.50;;;;;;;;;;8255999;28;20575;-56
2023/08/23 20:48:10;;;;;;;1.90;1.42;;;;;;;;;;8256459;28;20034;-56
2023/08/23 20:52:10;;;;;;;3.45;1.88;;;;;;;;;;8261276;28;20570;-57
2023/08/23 20:56:12;;;;;;;2.25;1.55;;;;;;;;;;8266251;28;20018;-57
2023/08/23 21:00:12;;;;;;;1.73;1.40;;;;;;;;;;8261228;28;20739;-56
2023/08/23 21:04:13;;;;;;;2.03;1.50;;;;;;;;;;8264440;28;20579;-55
2023/08/23 21:08:13;;;;;;;1.48;1.30;;;;;;;;;;8259431;28;20103;-56
2023/08/23 21:12:13;;;;;;;1.65;1.33;;;;;;;;;;8266493;28;20057;-56
2023/08/23 21:16:13;;;;;;;3.72;1.48;;;;;;;;;;8265456;28;20037;-55
2023/08/23 21:20:14;;;;;;;2.40;1.70;;;;;;;;;;8267027;28;20029;-55
2023/08/23 21:24:15;;;;;;;5.13;1.60;;;;;;;;;;8268027;28;20163;-55
2023/08/23 21:28:15;;;;;;;3.00;1.50;;;;;;;;;;8269232;28;20124;-55
2023/08/23 21:32:15;;;;;;;2.20;1.43;;;;;;;;;;8268220;28;20048;-55
2023/08/23 21:36:16;;;;;;;1.73;1.40;;;;;;;;;;8266385;28;20874;-55
2023/08/23 21:40:16;;;;;;;4.00;1.48;;;;;;;;;;8268519;28;20116;-55
2023/08/23 21:44:16;;;;;;;1.30;1.20;;;;;;;;;;8267891;28;20024;-55
2023/08/23 21:48:16;;;;;;;1.33;1.23;;;;;;;;;;8264830;28;20033;-56
2023/08/23 21:52:18;;;;;;;2.50;1.20;;;;;;;;;;8258765;28;20053;-55
2023/08/23 21:56:18;;;;;;;1.63;1.30;;;;;;;;;;8262719;28;20033;-55
2023/08/23 22:00:18;;;;;;;1.40;1.30;;;;;;;;;;8267699;28;20033;-55
2023/08/23 22:04:20;;;;;;;4.90;1.50;;;;;;;;;;8266179;28;20026;-55
2023/08/23 22:08:20;;;;;;;1.90;1.55;;;;;;;;;;8265667;28;20135;-55
2023/08/23 22:12:21;;;;;;;1.58;1.30;;;;;;;;;;8267604;28;20964;-54
2023/08/23 22:16:21;;;;;;;4.53;1.52;;;;;;;;;;8268424;28;20042;-56
2023/08/23 22:20:23;;;;;;;2.50;1.43;;;;;;;;;;8264803;28;20562;-56
2023/08/23 22:24:23;;;;;;;1.63;1.40;;;;;;;;;;8265921;28;20417;-56
2023/08/23 22:28:24;;;;;;;3.08;1.30;;;;;;;;;;8266629;28;20077;-55
2023/08/23 22:32:24;;;;;;;3.20;1.50;;;;;;;;;;8267700;28;20037;-55
2023/08/23 22:36:24;;;;;;;3.45;1.58;;;;;;;;;;8265205;28;20019;-56
2023/08/23 22:40:24;;;;;;;1.85;1.30;;;;;;;;;;8266948;28;20029;-55
2023/08/23 22:44:25;;;;;;;4.53;1.40;;;;;;;;;;8265381;28;20022;-56
2023/08/23 22:48:25;;;;;;;2.60;1.65;;;;;;;;;;8264583;28;20026;-56
2023/08/23 22:52:25;;;;;;;1.77;1.37;;;;;;;;;;8267179;28;20033;-55
2023/08/23 22:56:25;;;;;;;2.00;1.73;;;;;;;;;;8267216;28;20022;-55
2023/08/23 23:00:26;;;;;;;2.47;1.63;;;;;;;;;;8270878;28;20132;-56
2023/08/23 23:04:26;;;;;;;2.33;1.80;;;;;;;;;;8266519;28;20365;-55
2023/08/23 23:08:26;;;;;;;2.63;1.73;;;;;;;;;;8271396;28;20148;-56
2023/08/23 23:12:27;;;;;;;2.87;1.50;;;;;;;;;;8269711;28;20284;-55
2023/08/23 23:16:27;;;;;;;2.42;1.50;;;;;;;;;;8267564;28;20042;-55
2023/08/23 23:20:28;;;;;;;2.30;1.80;;;;;;;;;;8270628;28;20361;-56
2023/08/23 23:24:28;;;;;;;1.67;1.50;;;;;;;;;;8271344;28;20029;-55
2023/08/23 23:28:29;;;;;;;1.98;1.70;;;;;;;;;;8270452;28;20508;-55
2023/08/23 23:32:30;;;;;;;1.63;1.52;;;;;;;;;;8270806;28;20115;-55
2023/08/23 23:36:30;;;;;;;1.45;1.35;;;;;;;;;;8270254;28;21068;-55
2023/08/23 23:40:31;;;;;;;2.97;1.43;;;;;;;;;;8270274;28;20033;-56
2023/08/23 23:44:31;;;;;;;3.28;1.80;;;;;;;;;;8273772;28;20546;-55
2023/08/23 23:48:31;;;;;;;1.97;1.47;;;;;;;;;;8271710;28;20045;-54
2023/08/23 23:52:32;;;;;;;1.85;1.65;;;;;;;;;;8271997;28;20277;-55
2023/08/23 23:56:32;;;;;;;3.28;1.90;;;;;;;;;;8271588;28;20065;-55
